Time;durP1;ratioP1;P1;durP2;ratioP2;P2;SDS_P1;SDS_P2;PMS_P1;PMS_P2;Temp;Humidity;BMP_temperature;BMP_pressure;BME280_temperature;BME280_humidity;BME280_pressure;Samples;Min_cycle;Max_cycle;Signal;HPM_P1;HPM_P2
2022/07/05 00:02:04;;;;;;;;;;;14.70;99.90;;;;;;5032808;28;19996;-75
2022/07/05 00:04:29;;;;;;;;;;;14.70;99.90;;;;;;5032582;28;19997;-75
2022/07/05 00:09:39;;;;;;;;;;;14.70;99.90;;;;;;5033043;28;20331;-74
2022/07/05 00:12:06;;;;;;;;;;;14.70;99.90;;;;;;5031846;28;19925;-75
2022/07/05 00:14:32;;;;;;;;;;;14.90;99.90;;;;;;5033926;28;19914;-75
2022/07/05 00:16:57;;;;;;;;;;;14.80;99.90;;;;;;5035138;28;20258;-75
2022/07/05 00:19:22;;;;;;;;;;;14.80;99.90;;;;;;5028550;28;19967;-74
2022/07/05 00:21:48;;;;;;;;;;;14.70;99.90;;;;;;5032798;28;20330;-74
2022/07/05 00:24:13;;;;;;;;;;;14.60;99.90;;;;;;5034361;28;19917;-75
2022/07/05 00:26:39;;;;;;;;;;;14.60;99.90;;;;;;5033513;28;20308;-75
2022/07/05 00:29:05;;;;;;;;;;;14.50;99.90;;;;;;5027940;28;19975;-75
2022/07/05 00:31:30;;;;;;;;;;;14.40;99.90;;;;;;5023927;28;19918;-75
2022/07/05 00:33:56;;;;;;;;;;;14.40;99.90;;;;;;5031764;28;19917;-75
2022/07/05 00:36:21;;;;;;;;;;;14.40;99.90;;;;;;5033233;28;19944;-76
2022/07/05 00:38:47;;;;;;;;;;;14.50;99.90;;;;;;5029564;28;19974;-75
2022/07/05 00:41:12;;;;;;;;;;;14.50;99.90;;;;;;5032076;28;19958;-75
2022/07/05 00:43:50;;;;;;;;;;;14.40;99.90;;;;;;5023194;28;20347;-75
2022/07/05 00:46:16;;;;;;;;;;;14.40;99.90;;;;;;5025971;28;19925;-76
2022/07/05 00:48:41;;;;;;;;;;;14.40;99.90;;;;;;5031354;28;19921;-75
2022/07/05 00:51:07;;;;;;;;;;;14.40;99.90;;;;;;5034930;28;19913;-75
2022/07/05 00:53:33;;;;;;;;;;;14.40;99.90;;;;;;5030748;28;19913;-75
2022/07/05 00:55:58;;;;;;;;;;;14.40;99.90;;;;;;5033842;28;19913;-76
2022/07/05 00:58:24;;;;;;;;;;;14.40;99.90;;;;;;5036292;28;19917;-76
2022/07/05 01:00:49;;;;;;;;;;;14.40;99.90;;;;;;5037587;28;19932;-75
2022/07/05 01:03:15;;;;;;;;;;;14.40;99.90;;;;;;5033572;28;19921;-75
2022/07/05 01:05:40;;;;;;;;;;;14.50;99.90;;;;;;5034738;28;20018;-75
2022/07/05 01:08:06;;;;;;;;;;;14.50;99.90;;;;;;5017849;28;19929;-75
2022/07/05 01:10:31;;;;;;;;;;;14.50;99.90;;;;;;5036403;28;19913;-75
2022/07/05 01:12:57;;;;;;;;;;;14.50;99.90;;;;;;5036708;28;19936;-75
2022/07/05 01:15:23;;;;;;;;;;;14.50;99.90;;;;;;5068621;28;19913;-78
2022/07/05 01:17:48;;;;;;;;;;;14.50;99.90;;;;;;5033380;28;19928;-75
2022/07/05 01:20:14;;;;;;;;;;;14.50;99.90;;;;;;5037280;28;20349;-75
2022/07/05 01:22:56;;;;;;;;;;;14.40;99.90;;;;;;5034898;28;19949;-75
2022/07/05 01:25:22;;;;;;;;;;;14.30;99.90;;;;;;5037256;28;19917;-75
2022/07/05 01:27:49;;;;;;;;;;;14.30;99.90;;;;;;5036008;28;19944;-75
2022/07/05 01:30:15;;;;;;;;;;;14.20;99.90;;;;;;5037824;28;19917;-75
2022/07/05 01:32:40;;;;;;;;;;;14.30;99.90;;;;;;5035593;28;19920;-75
2022/07/05 01:35:07;;;;;;;;;;;14.20;99.90;;;;;;5063715;28;20251;-75
2022/07/05 01:37:33;;;;;;;;;;;14.30;99.90;;;;;;5031603;28;20304;-76
2022/07/05 01:39:58;;;;;;;;;;;14.20;99.90;;;;;;5035385;28;19955;-76
2022/07/05 01:42:24;;;;;;;;;;;14.20;99.90;;;;;;5036002;28;19948;-76
2022/07/05 01:44:50;;;;;;;;;;;14.20;99.90;;;;;;5034093;28;20552;-75
2022/07/05 01:47:16;;;;;;;;;;;14.20;99.90;;;;;;5034284;28;20370;-75
2022/07/05 01:49:45;;;;;;;;;;;14.20;99.90;;;;;;5036444;28;19917;-74
2022/07/05 01:52:11;;;;;;;;;;;14.10;99.90;;;;;;5036002;28;20251;-75
2022/07/05 01:54:37;;;;;;;;;;;14.00;99.90;;;;;;5037162;28;19920;-75
2022/07/05 01:57:06;;;;;;;;;;;14.00;99.90;;;;;;5034882;28;19914;-75
2022/07/05 01:59:33;;;;;;;;;;;14.00;99.90;;;;;;5035823;28;20008;-75
2022/07/05 02:01:59;;;;;;;;;;;13.90;99.90;;;;;;5035079;28;20023;-78
2022/07/05 02:04:25;;;;;;;;;;;13.90;99.90;;;;;;5026151;28;20025;-77
2022/07/05 02:06:50;;;;;;;;;;;13.90;99.90;;;;;;5032779;28;19967;-76
2022/07/05 02:09:16;;;;;;;;;;;14.10;99.90;;;;;;5027570;28;20328;-76
2022/07/05 02:11:41;;;;;;;;;;;14.10;99.90;;;;;;5035306;28;20418;-76
2022/07/05 02:14:07;;;;;;;;;;;14.20;99.90;;;;;;5035487;28;19913;-76
2022/07/05 02:16:33;;;;;;;;;;;14.10;99.90;;;;;;5036031;28;19917;-76
2022/07/05 02:18:58;;;;;;;;;;;14.10;99.90;;;;;;5035209;28;20008;-76
2022/07/05 02:21:24;;;;;;;;;;;14.10;99.90;;;;;;5031301;28;19956;-76
2022/07/05 02:23:50;;;;;;;;;;;14.00;99.90;;;;;;5034368;28;20239;-77
2022/07/05 02:26:15;;;;;;;;;;;14.00;99.90;;;;;;5033858;28;19963;-76
2022/07/05 02:28:41;;;;;;;;;;;14.00;99.90;;;;;;5034858;28;19920;-76
2022/07/05 02:31:07;;;;;;;;;;;14.00;99.90;;;;;;5035829;28;19917;-77
2022/07/05 02:33:33;;;;;;;;;;;13.90;99.90;;;;;;5034111;28;19984;-76
2022/07/05 02:36:05;;;;;;;;;;;13.90;99.90;;;;;;5034729;28;19954;-77
2022/07/05 02:38:30;;;;;;;;;;;13.90;99.90;;;;;;5034556;28;19921;-76
2022/07/05 02:40:56;;;;;;;;;;;13.90;99.90;;;;;;5033022;28;20301;-75
2022/07/05 02:43:21;;;;;;;;;;;13.90;99.90;;;;;;5032190;28;19917;-76
2022/07/05 02:45:47;;;;;;;;;;;13.90;99.90;;;;;;5024449;28;19967;-76
2022/07/05 02:48:12;;;;;;;;;;;13.70;99.90;;;;;;5031312;28;20024;-75
2022/07/05 02:50:38;;;;;;;;;;;13.60;99.90;;;;;;5030306;28;19999;-76
2022/07/05 02:53:04;;;;;;;;;;;13.60;99.90;;;;;;5031017;28;19916;-76
2022/07/05 02:55:29;;;;;;;;;;;13.60;99.90;;;;;;5033728;28;20270;-76
2022/07/05 02:57:55;;;;;;;;;;;13.60;99.90;;;;;;5034761;28;19913;-76
2022/07/05 03:00:21;;;;;;;;;;;13.60;99.90;;;;;;5034908;28;19917;-76
2022/07/05 03:02:46;;;;;;;;;;;13.60;99.90;;;;;;5021498;28;19963;-76
2022/07/05 03:05:12;;;;;;;;;;;13.60;99.90;;;;;;5033841;28;19913;-76
2022/07/05 03:07:38;;;;;;;;;;;13.60;99.90;;;;;;5033112;28;19924;-76
2022/07/05 03:10:03;;;;;;;;;;;13.60;99.90;;;;;;5036596;28;19909;-77
2022/07/05 03:12:29;;;;;;;;;;;13.60;99.90;;;;;;5038244;28;19983;-76
2022/07/05 03:14:54;;;;;;;;;;;13.60;99.90;;;;;;5033616;28;20072;-76
2022/07/05 03:17:20;;;;;;;;;;;13.60;99.90;;;;;;5035310;28;19920;-75
2022/07/05 03:19:45;;;;;;;;;;;13.60;99.90;;;;;;5031652;28;19917;-75
2022/07/05 03:22:11;;;;;;;;;;;13.60;99.90;;;;;;5034965;28;20220;-75
2022/07/05 03:24:36;;;;;;;;;;;13.70;99.90;;;;;;5035012;28;19913;-75
2022/07/05 03:27:02;;;;;;;;;;;13.70;99.90;;;;;;5035511;28;19917;-75
2022/07/05 03:29:29;;;;;;;;;;;13.80;99.90;;;;;;5032795;28;19917;-75
2022/07/05 03:31:54;;;;;;;;;;;13.80;99.90;;;;;;5021483;28;19921;-75
2022/07/05 03:34:20;;;;;;;;;;;13.80;99.90;;;;;;5035420;28;19913;-75
2022/07/05 03:36:45;;;;;;;;;;;13.90;99.90;;;;;;5029699;28;19917;-75
2022/07/05 03:39:11;;;;;;;;;;;13.90;99.90;;;;;;5030801;28;20310;-75
2022/07/05 03:41:36;;;;;;;;;;;13.90;99.90;;;;;;5032365;28;20205;-75
2022/07/05 03:44:02;;;;;;;;;;;14.00;99.90;;;;;;5030832;28;20014;-76
2022/07/05 03:46:27;;;;;;;;;;;14.10;99.90;;;;;;5030231;28;19913;-76
2022/07/05 03:48:53;;;;;;;;;;;14.20;99.90;;;;;;5033490;28;19920;-75
2022/07/05 03:51:18;;;;;;;;;;;14.20;99.90;;;;;;5026908;28;19914;-75
2022/07/05 03:53:44;;;;;;;;;;;14.20;99.90;;;;;;5026220;28;19917;-76
2022/07/05 03:56:09;;;;;;;;;;;14.20;99.90;;;;;;5033305;28;19923;-76
2022/07/05 03:58:35;;;;;;;;;;;14.30;99.90;;;;;;5033514;28;19917;-76
2022/07/05 04:01:01;;;;;;;;;;;14.30;99.90;;;;;;5033577;28;19922;-75
2022/07/05 04:03:26;;;;;;;;;;;14.30;99.90;;;;;;5028322;28;20012;-75
2022/07/05 04:05:52;;;;;;;;;;;14.30;99.90;;;;;;5030118;28;20305;-75
2022/07/05 04:08:17;;;;;;;;;;;14.30;99.90;;;;;;5032614;28;19918;-75
2022/07/05 04:10:43;;;;;;;;;;;14.30;99.90;;;;;;5032990;28;20320;-75
2022/07/05 04:13:08;;;;;;;;;;;14.40;99.90;;;;;;5033552;28;19935;-76
2022/07/05 04:15:34;;;;;;;;;;;14.50;99.90;;;;;;5033693;28;19923;-76
2022/07/05 04:17:59;;;;;;;;;;;14.50;99.90;;;;;;5034435;28;20282;-75
2022/07/05 04:20:25;;;;;;;;;;;14.40;99.90;;;;;;5029657;28;19917;-75
2022/07/05 04:22:51;;;;;;;;;;;14.50;99.90;;;;;;5033155;28;19913;-75
2022/07/05 04:25:17;;;;;;;;;;;14.50;99.90;;;;;;5033512;28;19913;-75
2022/07/05 04:27:47;;;;;;;;;;;14.60;99.90;;;;;;5033381;28;20312;-75
2022/07/05 04:30:13;;;;;;;;;;;14.60;99.90;;;;;;5029918;28;19913;-76
2022/07/05 04:32:38;;;;;;;;;;;14.60;99.90;;;;;;5069644;28;20316;-75
2022/07/05 04:35:04;;;;;;;;;;;14.70;99.90;;;;;;5036907;28;19917;-75
2022/07/05 04:37:30;;;;;;;;;;;14.80;99.90;;;;;;5035923;28;20305;-75
2022/07/05 04:39:55;;;;;;;;;;;14.80;99.90;;;;;;5056554;28;19913;-75
2022/07/05 04:42:21;;;;;;;;;;;14.90;99.90;;;;;;5029787;28;19918;-74
2022/07/05 04:44:46;;;;;;;;;;;14.90;99.90;;;;;;5037145;28;19913;-75
2022/07/05 04:47:12;;;;;;;;;;;15.00;99.90;;;;;;5024366;28;20319;-74
2022/07/05 04:49:37;;;;;;;;;;;15.00;99.90;;;;;;5036145;28;19921;-75
2022/07/05 04:52:03;;;;;;;;;;;15.10;99.90;;;;;;5035269;28;20016;-75
2022/07/05 04:54:29;;;;;;;;;;;15.10;99.90;;;;;;5037071;28;19960;-75
2022/07/05 04:56:54;;;;;;;;;;;15.20;99.90;;;;;;5034496;28;19975;-74
2022/07/05 04:59:20;;;;;;;;;;;15.30;99.90;;;;;;5035518;28;19921;-75
2022/07/05 05:01:45;;;;;;;;;;;15.30;99.90;;;;;;5037069;28;19923;-75
2022/07/05 05:04:11;;;;;;;;;;;15.40;99.90;;;;;;5036005;28;19959;-75
2022/07/05 05:06:37;;;;;;;;;;;15.40;99.90;;;;;;5035971;28;19916;-76
2022/07/05 05:09:02;;;;;;;;;;;15.50;99.90;;;;;;5034937;28;20000;-75
2022/07/05 05:11:28;;;;;;;;;;;15.60;99.90;;;;;;5036893;28;20000;-75
2022/07/05 05:13:54;;;;;;;;;;;15.60;99.90;;;;;;5035021;28;20436;-75
2022/07/05 05:16:19;;;;;;;;;;;15.70;99.90;;;;;;5036578;28;20296;-75
2022/07/05 05:18:45;;;;;;;;;;;15.80;99.90;;;;;;5034499;28;19941;-75
2022/07/05 05:21:11;;;;;;;;;;;15.80;99.90;;;;;;5035179;28;19927;-75
2022/07/05 05:23:36;;;;;;;;;;;15.90;99.90;;;;;;5035551;28;19917;-77
2022/07/05 05:26:02;;;;;;;;;;;15.90;99.90;;;;;;5036368;28;19921;-75
2022/07/05 05:28:28;;;;;;;;;;;15.90;99.90;;;;;;5036148;28;19917;-75
2022/07/05 05:30:53;;;;;;;;;;;15.90;99.90;;;;;;5036230;28;19917;-75
2022/07/05 05:33:19;;;;;;;;;;;15.80;99.90;;;;;;5036185;28;19917;-75
2022/07/05 05:35:44;;;;;;;;;;;15.80;99.90;;;;;;5035313;28;19932;-77
2022/07/05 05:38:10;;;;;;;;;;;15.80;99.90;;;;;;5034278;28;19944;-75
2022/07/05 05:40:40;;;;;;;;;;;15.80;99.90;;;;;;5036076;28;19983;-75
2022/07/05 05:43:06;;;;;;;;;;;15.90;99.90;;;;;;5033725;28;19924;-75
2022/07/05 05:45:32;;;;;;;;;;;15.90;99.90;;;;;;5036340;28;19913;-75
2022/07/05 05:47:58;;;;;;;;;;;15.90;99.90;;;;;;5033158;28;19921;-77
2022/07/05 05:50:25;;;;;;;;;;;16.00;99.90;;;;;;5037112;28;19959;-77
2022/07/05 05:52:51;;;;;;;;;;;16.00;99.90;;;;;;5032115;28;19920;-75
2022/07/05 05:55:17;;;;;;;;;;;16.10;99.90;;;;;;5032480;28;19917;-76
2022/07/05 05:57:42;;;;;;;;;;;16.10;99.90;;;;;;5037405;28;19971;-75
2022/07/05 06:00:08;;;;;;;;;;;16.10;99.90;;;;;;5036008;28;19979;-76
2022/07/05 06:02:34;;;;;;;;;;;16.20;99.90;;;;;;5036048;28;19921;-79
2022/07/05 06:04:59;;;;;;;;;;;16.30;99.90;;;;;;5036416;28;20206;-75
2022/07/05 06:07:25;;;;;;;;;;;16.40;99.90;;;;;;5037242;28;20259;-80
2022/07/05 06:09:51;;;;;;;;;;;16.60;99.90;;;;;;5035934;28;20018;-76
2022/07/05 06:12:16;;;;;;;;;;;16.90;99.90;;;;;;5035386;28;19921;-76
2022/07/05 06:14:42;;;;;;;;;;;17.00;99.90;;;;;;5016122;28;20404;-77
2022/07/05 06:17:07;;;;;;;;;;;17.10;99.90;;;;;;5031877;28;20319;-75
2022/07/05 06:19:33;;;;;;;;;;;17.20;99.90;;;;;;5033906;28;20197;-76
2022/07/05 06:21:58;;;;;;;;;;;17.30;99.90;;;;;;5035677;28;19966;-77
2022/07/05 06:24:24;;;;;;;;;;;17.30;99.90;;;;;;5035820;28;19917;-75
2022/07/05 06:26:49;;;;;;;;;;;17.40;99.90;;;;;;5031515;28;19921;-76
2022/07/05 06:29:15;;;;;;;;;;;17.20;99.90;;;;;;5033000;28;19932;-76
2022/07/05 06:31:41;;;;;;;;;;;17.30;99.90;;;;;;5035126;28;19958;-79
2022/07/05 06:34:06;;;;;;;;;;;17.20;99.90;;;;;;5035037;28;20003;-78
2022/07/05 06:36:32;;;;;;;;;;;17.20;99.90;;;;;;5035773;28;19913;-76
2022/07/05 06:38:57;;;;;;;;;;;17.20;99.90;;;;;;5032813;28;19936;-75
2022/07/05 06:41:23;;;;;;;;;;;17.20;99.90;;;;;;5032465;28;20027;-76
2022/07/05 06:43:48;;;;;;;;;;;17.30;99.90;;;;;;5032836;28;19969;-76
2022/07/05 06:46:14;;;;;;;;;;;17.40;99.90;;;;;;5035551;28;19917;-78
2022/07/05 06:48:39;;;;;;;;;;;17.50;99.90;;;;;;5064539;28;19983;-75
2022/07/05 06:51:06;;;;;;;;;;;17.60;99.90;;;;;;5036112;28;19913;-81
2022/07/05 06:53:31;;;;;;;;;;;17.70;99.90;;;;;;5032373;28;19913;-74
2022/07/05 06:55:57;;;;;;;;;;;17.90;99.90;;;;;;5034161;28;19913;-76
2022/07/05 06:58:23;;;;;;;;;;;18.00;99.90;;;;;;5032752;28;19913;-75
2022/07/05 07:00:48;;;;;;;;;;;17.90;99.90;;;;;;5030999;28;19920;-76
2022/07/05 07:03:14;;;;;;;;;;;17.90;99.90;;;;;;5032726;28;20004;-77
2022/07/05 07:05:40;;;;;;;;;;;17.90;99.90;;;;;;5035027;28;19920;-77
2022/07/05 07:10:50;;;;;;;;;;;17.90;99.90;;;;;;5034016;28;19967;-75
2022/07/05 07:13:15;;;;;;;;;;;17.80;99.90;;;;;;5035268;28;19968;-76
2022/07/05 07:15:41;;;;;;;;;;;17.90;99.90;;;;;;5031620;28;20004;-79
2022/07/05 07:18:07;;;;;;;;;;;17.90;99.90;;;;;;5026914;28;19917;-74
2022/07/05 07:20:32;;;;;;;;;;;17.90;99.90;;;;;;5034774;28;19967;-74
2022/07/05 07:22:58;;;;;;;;;;;17.90;99.90;;;;;;5034798;28;20601;-75
2022/07/05 07:25:23;;;;;;;;;;;17.80;99.90;;;;;;5029368;28;20056;-74
2022/07/05 07:27:50;;;;;;;;;;;17.90;99.90;;;;;;5032060;28;19943;-76
2022/07/05 07:30:18;;;;;;;;;;;18.10;99.90;;;;;;5034849;28;19929;-74
2022/07/05 07:32:45;;;;;;;;;;;18.30;99.90;;;;;;5031450;28;19917;-76
2022/07/05 07:35:11;;;;;;;;;;;18.50;99.90;;;;;;5034495;28;20259;-75
2022/07/05 07:37:36;;;;;;;;;;;18.60;99.90;;;;;;5034139;28;19917;-74
2022/07/05 07:40:03;;;;;;;;;;;18.60;99.90;;;;;;5029011;28;20215;-76
2022/07/05 07:42:29;;;;;;;;;;;18.70;99.90;;;;;;5030771;28;19920;-75
2022/07/05 07:44:54;;;;;;;;;;;18.80;99.90;;;;;;5032985;28;19920;-75
2022/07/05 07:47:20;;;;;;;;;;;18.70;99.90;;;;;;5032043;28;20043;-74
2022/07/05 07:49:45;;;;;;;;;;;18.70;99.90;;;;;;5005372;28;19960;-74
2022/07/05 07:52:11;;;;;;;;;;;18.80;99.90;;;;;;5031364;28;19914;-76
2022/07/05 07:54:36;;;;;;;;;;;18.80;99.90;;;;;;5032664;28;19924;-76
2022/07/05 07:57:04;;;;;;;;;;;18.60;99.90;;;;;;5032318;28;19913;-75
2022/07/05 07:59:31;;;;;;;;;;;18.90;99.90;;;;;;5032492;28;20320;-74
2022/07/05 08:01:56;;;;;;;;;;;19.20;99.90;;;;;;5031840;28;20283;-75
2022/07/05 08:04:22;;;;;;;;;;;19.50;99.90;;;;;;5033596;28;19952;-75
2022/07/05 08:06:47;;;;;;;;;;;19.60;99.90;;;;;;5032699;28;19927;-75
2022/07/05 08:09:13;;;;;;;;;;;19.90;99.90;;;;;;5031836;28;19917;-76
2022/07/05 08:11:39;;;;;;;;;;;20.00;99.90;;;;;;5031973;28;19929;-75
2022/07/05 08:14:04;;;;;;;;;;;20.30;99.90;;;;;;5032700;28;19962;-75
2022/07/05 08:16:30;;;;;;;;;;;20.60;99.90;;;;;;5033234;28;19917;-76
2022/07/05 08:21:40;;;;;;;;;;;20.80;99.90;;;;;;5033336;28;19931;-76
2022/07/05 08:24:06;;;;;;;;;;;20.80;99.90;;;;;;5033173;28;20007;-74
2022/07/05 08:26:32;;;;;;;;;;;21.00;99.90;;;;;;5031746;28;19913;-75
2022/07/05 08:28:58;;;;;;;;;;;20.90;99.90;;;;;;5032179;28;20312;-75
2022/07/05 08:31:25;;;;;;;;;;;20.60;99.90;;;;;;5031928;28;20026;-74
2022/07/05 08:33:50;;;;;;;;;;;20.60;99.90;;;;;;5032610;28;19913;-76
2022/07/05 08:36:16;;;;;;;;;;;20.90;99.90;;;;;;5032742;28;19922;-77
2022/07/05 08:38:42;;;;;;;;;;;21.40;99.90;;;;;;5032075;28;19921;-79
2022/07/05 08:41:08;;;;;;;;;;;22.00;99.90;;;;;;5032290;28;19917;-74
2022/07/05 08:43:35;;;;;;;;;;;22.30;99.90;;;;;;5032157;28;20618;-75
2022/07/05 08:46:01;;;;;;;;;;;22.40;99.90;;;;;;5032064;28;19914;-75
2022/07/05 08:48:27;;;;;;;;;;;22.40;99.90;;;;;;5029933;28;19917;-76
2022/07/05 08:50:54;;;;;;;;;;;22.60;99.90;;;;;;5026578;28;19917;-76
2022/07/05 08:53:20;;;;;;;;;;;22.40;99.00;;;;;;5032905;28;19917;-75
2022/07/05 08:55:46;;;;;;;;;;;22.10;99.60;;;;;;5023632;28;19963;-76
2022/07/05 08:58:11;;;;;;;;;;;22.00;99.60;;;;;;5031204;28;19913;-77
2022/07/05 09:00:38;;;;;;;;;;;22.00;99.90;;;;;;5032650;28;19913;-74
2022/07/05 09:03:04;;;;;;;;;;;22.30;99.90;;;;;;5031867;28;19917;-74
2022/07/05 09:05:30;;;;;;;;;;;22.80;98.20;;;;;;5031160;28;19917;-76
2022/07/05 09:07:59;;;;;;;;;;;22.50;98.40;;;;;;5033414;28;19927;-76
2022/07/05 09:10:29;;;;;;;;;;;22.30;99.90;;;;;;5031504;28;19971;-75
2022/07/05 09:12:55;;;;;;;;;;;22.30;99.90;;;;;;5032307;28;19925;-74
2022/07/05 09:15:20;;;;;;;;;;;22.90;99.90;;;;;;5031839;28;20308;-77
2022/07/05 09:17:46;;;;;;;;;;;23.20;99.40;;;;;;5032865;28;19917;-76
2022/07/05 09:20:16;;;;;;;;;;;23.50;98.10;;;;;;5035067;28;20324;-74
2022/07/05 09:22:46;;;;;;;;;;;23.00;98.70;;;;;;5067420;28;19948;-76
2022/07/05 09:25:13;;;;;;;;;;;22.60;99.90;;;;;;5037185;28;19966;-76
2022/07/05 09:27:48;;;;;;;;;;;22.10;99.90;;;;;;5037590;28;19917;-74
2022/07/05 09:30:24;;;;;;;;;;;21.90;99.50;;;;;;5037708;28;20013;-76
2022/07/05 09:32:59;;;;;;;;;;;21.90;98.90;;;;;;5032351;28;20004;-76
2022/07/05 09:35:25;;;;;;;;;;;21.90;99.90;;;;;;5029791;28;19913;-74
2022/07/05 09:37:51;;;;;;;;;;;21.70;99.20;;;;;;5034323;28;19913;-82
2022/07/05 09:40:17;;;;;;;;;;;21.70;98.70;;;;;;5026110;28;19921;-78
2022/07/05 09:42:42;;;;;;;;;;;21.70;99.60;;;;;;5025982;28;20220;-76
2022/07/05 09:45:08;;;;;;;;;;;21.30;99.70;;;;;;5033299;28;19913;-79
2022/07/05 09:47:33;;;;;;;;;;;20.80;99.90;;;;;;5025000;28;19918;-76
2022/07/05 09:50:06;;;;;;;;;;;21.30;99.90;;;;;;5030142;28;19917;-76
2022/07/05 09:52:33;;;;;;;;;;;22.00;99.90;;;;;;5031829;28;20026;-80
2022/07/05 09:55:06;;;;;;;;;;;22.70;99.90;;;;;;5026229;28;20040;-73
2022/07/05 09:57:33;;;;;;;;;;;23.10;99.20;;;;;;5021674;28;19936;-79
2022/07/05 09:59:59;;;;;;;;;;;22.80;98.80;;;;;;5047576;28;19917;-73
2022/07/05 10:02:39;;;;;;;;;;;22.70;98.50;;;;;;5034137;28;19913;-74
2022/07/05 10:05:11;;;;;;;;;;;22.30;99.40;;;;;;5035879;28;19968;-74
2022/07/05 10:07:39;;;;;;;;;;;22.20;99.10;;;;;;5035278;28;19924;-73
2022/07/05 10:10:05;;;;;;;;;;;22.50;99.70;;;;;;5035651;28;19917;-74
2022/07/05 10:12:31;;;;;;;;;;;22.60;98.00;;;;;;5028968;28;20228;-73
2022/07/05 10:14:57;;;;;;;;;;;23.10;99.00;;;;;;5034804;28;19917;-74
2022/07/05 10:17:23;;;;;;;;;;;23.90;97.90;;;;;;5029524;28;19913;-77
2022/07/05 10:19:49;;;;;;;;;;;23.70;97.50;;;;;;5035258;28;19919;-75
2022/07/05 10:22:15;;;;;;;;;;;23.00;97.70;;;;;;5035963;28;19932;-75
2022/07/05 10:24:40;;;;;;;;;;;23.30;97.80;;;;;;5032955;28;19913;-75
2022/07/05 10:27:07;;;;;;;;;;;23.00;97.70;;;;;;5026525;28;19933;-74
2022/07/05 10:29:34;;;;;;;;;;;22.60;97.30;;;;;;5033484;28;19913;-74
2022/07/05 10:32:00;;;;;;;;;;;22.70;98.20;;;;;;5032494;28;19927;-75
2022/07/05 10:34:26;;;;;;;;;;;23.00;98.30;;;;;;5035253;28;19917;-75
2022/07/05 10:36:52;;;;;;;;;;;23.00;97.90;;;;;;5033648;28;19920;-73
2022/07/05 10:39:17;;;;;;;;;;;22.70;98.90;;;;;;5034172;28;19921;-73
2022/07/05 10:41:43;;;;;;;;;;;22.70;98.60;;;;;;5032767;28;19913;-74
2022/07/05 10:44:09;;;;;;;;;;;22.50;98.20;;;;;;5033889;28;20035;-75
2022/07/05 10:46:38;;;;;;;;;;;22.10;99.10;;;;;;5033775;28;19923;-75
2022/07/05 10:49:11;;;;;;;;;;;21.30;99.00;;;;;;5032675;28;20000;-73
2022/07/05 10:51:36;;;;;;;;;;;21.10;99.90;;;;;;5034296;28;19956;-75
2022/07/05 10:54:03;;;;;;;;;;;20.90;99.90;;;;;;5033506;28;19963;-73
2022/07/05 10:56:29;;;;;;;;;;;20.80;99.90;;;;;;5066450;28;19921;-75
2022/07/05 10:59:05;;;;;;;;;;;21.10;99.90;;;;;;5032842;28;19924;-75
2022/07/05 11:01:31;;;;;;;;;;;21.00;99.90;;;;;;5034721;28;20216;-74
2022/07/05 11:04:02;;;;;;;;;;;21.10;99.20;;;;;;5035136;28;19917;-76
2022/07/05 11:06:29;;;;;;;;;;;21.20;97.90;;;;;;5032888;28;19921;-74
2022/07/05 11:08:58;;;;;;;;;;;20.90;99.40;;;;;;5032337;28;19921;-74
2022/07/05 11:11:27;;;;;;;;;;;20.80;98.40;;;;;;5032584;28;19920;-75
2022/07/05 11:13:58;;;;;;;;;;;20.80;99.90;;;;;;5034863;28;19971;-75
2022/07/05 11:16:25;;;;;;;;;;;20.80;99.70;;;;;;5032373;28;19940;-77
2022/07/05 11:18:52;;;;;;;;;;;21.20;98.70;;;;;;5031621;28;19920;-74
2022/07/05 11:21:21;;;;;;;;;;;21.20;98.00;;;;;;5033970;28;20367;-75
2022/07/05 11:23:47;;;;;;;;;;;21.30;97.90;;;;;;5035269;28;19971;-77
2022/07/05 11:26:15;;;;;;;;;;;21.40;97.50;;;;;;5035709;28;20304;-74
2022/07/05 11:28:42;;;;;;;;;;;21.50;98.40;;;;;;5034879;28;19923;-75
2022/07/05 11:31:08;;;;;;;;;;;21.50;96.60;;;;;;5031906;28;19996;-74
2022/07/05 11:33:34;;;;;;;;;;;21.70;98.40;;;;;;5023238;28;20052;-74
2022/07/05 11:36:01;;;;;;;;;;;21.90;96.50;;;;;;5032439;28;19923;-76
2022/07/05 11:38:26;;;;;;;;;;;21.80;95.50;;;;;;5028589;28;19964;-74
2022/07/05 11:40:53;;;;;;;;;;;22.00;95.60;;;;;;5028400;28;20376;-77
2022/07/05 11:43:26;;;;;;;;;;;21.90;96.60;;;;;;5029179;28;19924;-76
2022/07/05 11:45:57;;;;;;;;;;;22.30;95.20;;;;;;5028652;28;20386;-79
2022/07/05 11:48:22;;;;;;;;;;;22.00;94.70;;;;;;5029002;28;19917;-78
2022/07/05 11:50:49;;;;;;;;;;;21.80;95.80;;;;;;5029076;28;19917;-75
2022/07/05 11:53:24;;;;;;;;;;;21.80;96.20;;;;;;5029049;28;20376;-76
2022/07/05 11:55:53;;;;;;;;;;;22.00;95.80;;;;;;5029227;28;19917;-75
2022/07/05 11:58:19;;;;;;;;;;;22.10;96.50;;;;;;5030173;28;19921;-77
2022/07/05 12:00:53;;;;;;;;;;;21.70;97.50;;;;;;5029087;28;19924;-75
2022/07/05 12:03:18;;;;;;;;;;;21.10;98.10;;;;;;5029129;28;20012;-75
2022/07/05 12:05:44;;;;;;;;;;;20.60;98.00;;;;;;5027678;28;20043;-78
2022/07/05 12:08:10;;;;;;;;;;;20.50;97.20;;;;;;5027916;28;19921;-78
2022/07/05 12:13:19;;;;;;;;;;;20.20;99.90;;;;;;5028101;28;19932;-75
2022/07/05 12:15:46;;;;;;;;;;;20.00;99.70;;;;;;5028578;28;19917;-76
2022/07/05 12:18:12;;;;;;;;;;;19.90;97.90;;;;;;5030678;28;19913;-76
2022/07/05 12:20:38;;;;;;;;;;;20.10;98.60;;;;;;5028548;28;19913;-74
2022/07/05 12:23:05;;;;;;;;;;;20.50;99.90;;;;;;5027255;28;19917;-74
2022/07/05 12:25:31;;;;;;;;;;;20.60;98.30;;;;;;5029427;28;19913;-75
2022/07/05 12:27:58;;;;;;;;;;;20.70;96.60;;;;;;5029253;28;19921;-76
2022/07/05 12:30:24;;;;;;;;;;;20.30;97.20;;;;;;5030580;28;19928;-73
2022/07/05 12:32:57;;;;;;;;;;;20.10;97.10;;;;;;5021901;28;19917;-74
2022/07/05 12:35:39;;;;;;;;;;;20.00;97.30;;;;;;5030514;28;19945;-77
2022/07/05 12:38:05;;;;;;;;;;;20.00;96.60;;;;;;5030393;28;19917;-78
2022/07/05 12:40:31;;;;;;;;;;;19.80;98.70;;;;;;5020734;28;20295;-80
2022/07/05 12:43:01;;;;;;;;;;;19.80;98.60;;;;;;5062502;28;19947;-76
2022/07/05 12:45:27;;;;;;;;;;;19.80;97.90;;;;;;5028941;28;19969;-77
2022/07/05 12:47:56;;;;;;;;;;;19.50;98.30;;;;;;5026331;28;19956;-74
2022/07/05 12:50:24;;;;;;;;;;;19.40;97.70;;;;;;5030555;28;20161;-77
2022/07/05 12:53:00;;;;;;;;;;;19.70;98.00;;;;;;5031244;28;20297;-74
2022/07/05 12:58:19;;;;;;;;;;;19.80;97.10;;;;;;5034532;28;19986;-77
2022/07/05 13:00:45;;;;;;;;;;;19.50;98.00;;;;;;5033714;28;20316;-78
2022/07/05 13:03:10;;;;;;;;;;;19.30;99.10;;;;;;5033765;28;20221;-80
2022/07/05 13:05:36;;;;;;;;;;;19.30;98.30;;;;;;5034404;28;19917;-75
2022/07/05 13:08:01;;;;;;;;;;;19.40;97.00;;;;;;5033770;28;19921;-73
2022/07/05 13:10:33;;;;;;;;;;;19.60;99.10;;;;;;5034523;28;19940;-73
2022/07/05 13:12:59;;;;;;;;;;;19.90;98.30;;;;;;5032812;28;19933;-75
2022/07/05 13:15:25;;;;;;;;;;;20.00;99.90;;;;;;5036662;28;19913;-75
2022/07/05 13:17:50;;;;;;;;;;;20.00;98.80;;;;;;5034941;28;19932;-81
2022/07/05 13:20:17;;;;;;;;;;;20.00;98.50;;;;;;5035285;28;19971;-77
2022/07/05 13:22:43;;;;;;;;;;;19.80;96.70;;;;;;5034484;28;19952;-77
2022/07/05 13:25:11;;;;;;;;;;;19.80;98.30;;;;;;5036069;28;20251;-79
2022/07/05 13:27:36;;;;;;;;;;;20.00;99.90;;;;;;5035317;28;20000;-78
2022/07/05 13:30:03;;;;;;;;;;;20.60;97.70;;;;;;5034840;28;20000;-75
2022/07/05 13:32:28;;;;;;;;;;;21.30;98.90;;;;;;5035033;28;19917;-78
2022/07/05 13:34:54;;;;;;;;;;;21.40;97.80;;;;;;5034627;28;19924;-76
2022/07/05 13:37:19;;;;;;;;;;;21.50;98.70;;;;;;5035617;28;19924;-80
2022/07/05 13:39:45;;;;;;;;;;;21.40;97.90;;;;;;5034360;28;19921;-80
2022/07/05 13:42:10;;;;;;;;;;;21.50;96.90;;;;;;5035388;28;19917;-76
2022/07/05 13:44:36;;;;;;;;;;;21.60;97.00;;;;;;5035054;28;20008;-80
2022/07/05 13:47:01;;;;;;;;;;;21.40;97.40;;;;;;5026918;28;19925;-78
2022/07/05 13:49:27;;;;;;;;;;;20.90;97.40;;;;;;5067491;28;19924;-77
2022/07/05 13:51:53;;;;;;;;;;;20.60;96.40;;;;;;5035436;28;19921;-75
2022/07/05 13:54:18;;;;;;;;;;;20.50;97.70;;;;;;5034693;28;20012;-77
2022/07/05 13:56:44;;;;;;;;;;;20.30;98.00;;;;;;5026464;28;20008;-76
2022/07/05 13:59:09;;;;;;;;;;;20.20;98.40;;;;;;5034220;28;20343;-77
2022/07/05 14:01:35;;;;;;;;;;;20.70;98.70;;;;;;5035077;28;19924;-76
2022/07/05 14:04:02;;;;;;;;;;;21.20;98.50;;;;;;5033513;28;20406;-77
2022/07/05 14:06:28;;;;;;;;;;;21.70;99.80;;;;;;5029568;28;19935;-77
2022/07/05 14:08:54;;;;;;;;;;;22.30;98.40;;;;;;5031033;28;20218;-78
2022/07/05 14:11:19;;;;;;;;;;;22.50;97.20;;;;;;5032991;28;19917;-76
2022/07/05 14:13:45;;;;;;;;;;;21.70;97.70;;;;;;5036185;28;19925;-75
2022/07/05 14:16:10;;;;;;;;;;;21.00;98.50;;;;;;5008714;28;19920;-77
2022/07/05 14:18:36;;;;;;;;;;;20.70;99.80;;;;;;5034736;28;20319;-74
2022/07/05 14:21:02;;;;;;;;;;;20.40;99.30;;;;;;5031440;28;20008;-74
2022/07/05 14:23:28;;;;;;;;;;;20.10;99.70;;;;;;5046707;28;19936;-75
2022/07/05 14:25:54;;;;;;;;;;;20.00;99.90;;;;;;5030510;28;19918;-77